Time;durP1;ratioP1;P1;durP2;ratioP2;P2;SDS_P1;SDS_P2;PMS_P1;PMS_P2;Temp;Humidity;BMP_temperature;BMP_pressure;BME280_temperature;BME280_humidity;BME280_pressure;Samples;Min_cycle;Max_cycle;Signal;HPM_P1;HPM_P2
2023/08/06 00:00:05;;;;;;;;;;;;;;;21.82;58.58;100348.69;5061709;28;4251;-69
2023/08/06 00:02:34;;;;;;;;;;;;;;;21.82;58.56;100352.28;5060962;28;3918;-69
2023/08/06 00:05:00;;;;;;;;;;;;;;;21.83;58.81;100350.13;5060990;28;4385;-69
2023/08/06 00:07:27;;;;;;;;;;;;;;;21.82;58.43;100345.81;5062453;28;4438;-69
2023/08/06 00:09:53;;;;;;;;;;;;;;;21.82;58.50;100348.69;5061961;28;4518;-68
2023/08/06 00:12:19;;;;;;;;;;;;;;;21.82;58.65;100354.44;5043995;28;4775;-68
2023/08/06 00:14:49;;;;;;;;;;;;;;;21.81;58.45;100350.09;5061484;28;4298;-68
2023/08/06 00:17:16;;;;;;;;;;;;;;;21.82;58.45;100342.91;5062208;28;4142;-69
2023/08/06 00:19:42;;;;;;;;;;;;;;;21.81;58.68;100347.94;5061049;28;4225;-68
2023/08/06 00:22:08;;;;;;;;;;;;;;;21.81;58.61;100341.47;5062324;28;4093;-68
2023/08/06 00:24:35;;;;;;;;;;;;;;;21.81;58.58;100336.41;5061341;28;4232;-69
2023/08/06 00:27:02;;;;;;;;;;;;;;;21.82;58.53;100343.66;5060441;28;4084;-68
2023/08/06 00:29:28;;;;;;;;;;;;;;;21.82;58.54;100331.38;5059330;28;4291;-68
2023/08/06 00:31:54;;;;;;;;;;;;;;;21.80;58.80;100334.94;5033939;28;4022;-69
2023/08/06 00:34:21;;;;;;;;;;;;;;;21.81;58.73;100327.03;5061586;28;4247;-69
2023/08/06 00:36:47;;;;;;;;;;;;;;;21.81;58.72;100335.69;5060666;28;4100;-68
2023/08/06 00:39:14;;;;;;;;;;;;;;;21.81;58.48;100329.94;5061503;28;4123;-68
2023/08/06 00:41:40;;;;;;;;;;;;;;;21.81;58.44;100336.41;5061041;28;3878;-68
2023/08/06 00:44:07;;;;;;;;;;;;;;;21.80;58.55;100323.41;5061990;28;4185;-66
2023/08/06 00:46:33;;;;;;;;;;;;;;;21.82;58.38;100322.75;5061571;28;4121;-66
2023/08/06 00:49:00;;;;;;;;;;;;;;;21.81;58.44;100324.16;5032350;28;4106;-67
2023/08/06 00:51:26;;;;;;;;;;;;;;;21.81;58.82;100324.16;5036826;28;4505;-67
2023/08/06 00:53:53;;;;;;;;;;;;;;;21.81;58.59;100312.63;5017376;28;4062;-66
2023/08/06 00:56:19;;;;;;;;;;;;;;;21.80;58.60;100309.00;5043422;28;4031;-65
2023/08/06 00:58:45;;;;;;;;;;;;;;;21.80;58.69;100309.00;5059804;28;4160;-66
2023/08/06 01:01:12;;;;;;;;;;;;;;;21.81;58.50;100306.88;5060598;28;4001;-66
2023/08/06 01:03:38;;;;;;;;;;;;;;;21.80;58.51;100306.13;5059177;28;4239;-66
2023/08/06 01:06:05;;;;;;;;;;;;;;;21.81;58.83;100304.00;5059484;28;4167;-66
2023/08/06 01:08:44;;;;;;;;;;;;;;;21.81;58.36;100301.09;5049853;28;4179;-67
2023/08/06 01:11:29;;;;;;;;;;;;;;;21.80;58.70;100300.34;5033976;28;6619;-66
2023/08/06 01:14:10;;;;;;;;;;;;;;;21.80;58.47;100296.75;5060096;28;3971;-66
2023/08/06 01:16:36;;;;;;;;;;;;;;;21.80;58.64;100300.34;5033660;28;4577;-66
2023/08/06 01:19:03;;;;;;;;;;;;;;;21.79;58.45;100298.88;5026834;28;4024;-66
2023/08/06 01:21:29;;;;;;;;;;;;;;;21.81;58.52;100286.69;5061027;28;4145;-67
2023/08/06 01:23:56;;;;;;;;;;;;;;;21.80;58.66;100280.19;5060052;28;4039;-66
2023/08/06 01:26:24;;;;;;;;;;;;;;;21.81;58.77;100280.94;5061325;28;4145;-67
2023/08/06 01:28:56;;;;;;;;;;;;;;;21.80;58.71;100270.78;5055079;28;4261;-66
2023/08/06 01:31:26;;;;;;;;;;;;;;;21.81;58.50;100272.28;5056602;28;4149;-67
2023/08/06 01:33:53;;;;;;;;;;;;;;;21.80;58.58;100273.69;5031263;28;4083;-66
2023/08/06 01:36:20;;;;;;;;;;;;;;;21.80;58.53;100279.44;5041976;28;4163;-66
2023/08/06 01:38:46;;;;;;;;;;;;;;;21.80;58.61;100270.78;5031364;28;4156;-66
2023/08/06 01:41:13;;;;;;;;;;;;;;;21.80;58.65;100262.16;5059695;28;4068;-66
2023/08/06 01:43:39;;;;;;;;;;;;;;;21.80;58.55;100268.66;5047177;28;4243;-66
2023/08/06 01:46:06;;;;;;;;;;;;;;;21.80;58.76;100265.03;5060150;28;4109;-66
2023/08/06 01:48:32;;;;;;;;;;;;;;;21.80;58.46;100262.16;5059637;28;4916;-66
2023/08/06 01:50:58;;;;;;;;;;;;;;;21.80;58.67;100262.16;5041331;28;4125;-67
2023/08/06 01:53:25;;;;;;;;;;;;;;;21.81;58.53;100263.63;5060731;28;4127;-66
2023/08/06 01:55:51;;;;;;;;;;;;;;;21.81;58.79;100266.53;5040671;28;4184;-67
2023/08/06 01:58:18;;;;;;;;;;;;;;;21.80;58.62;100259.28;5049166;28;4126;-66
2023/08/06 02:00:44;;;;;;;;;;;;;;;21.80;58.61;100262.16;5041591;28;3942;-66
2023/08/06 02:03:11;;;;;;;;;;;;;;;21.79;58.63;100255.66;5059293;28;3998;-66
2023/08/06 02:05:37;;;;;;;;;;;;;;;21.81;58.42;100257.88;5058621;28;4163;-66
2023/08/06 02:08:05;;;;;;;;;;;;;;;21.80;58.50;100260.00;5059629;28;4462;-66
2023/08/06 02:10:31;;;;;;;;;;;;;;;21.80;58.47;100256.38;5059549;28;3939;-67
2023/08/06 02:12:58;;;;;;;;;;;;;;;21.81;58.59;100249.22;5059713;28;4475;-67
2023/08/06 02:15:25;;;;;;;;;;;;;;;21.80;58.82;100253.50;5041522;28;4157;-67
2023/08/06 02:17:51;;;;;;;;;;;;;;;21.80;58.46;100248.47;5059997;28;4181;-66
2023/08/06 02:20:18;;;;;;;;;;;;;;;21.80;58.61;100256.38;5060271;28;3879;-67
2023/08/06 02:22:44;;;;;;;;;;;;;;;21.80;58.44;100256.38;5058416;28;4121;-66
2023/08/06 02:25:10;;;;;;;;;;;;;;;21.79;58.62;100246.28;5060344;28;4007;-67
2023/08/06 02:27:37;;;;;;;;;;;;;;;21.80;58.85;100239.09;5059357;28;4175;-66
2023/08/06 02:30:05;;;;;;;;;;;;;;;21.80;58.80;100230.44;5058776;28;4026;-66
2023/08/06 02:32:32;;;;;;;;;;;;;;;21.80;58.66;100239.09;5059312;28;3991;-66
2023/08/06 02:34:59;;;;;;;;;;;;;;;21.79;58.70;100232.59;5037655;28;4032;-67
2023/08/06 02:37:25;;;;;;;;;;;;;;;21.79;58.67;100229.00;5038571;28;3983;-66
2023/08/06 02:39:52;;;;;;;;;;;;;;;21.80;58.83;100227.56;5037977;28;4089;-67
2023/08/06 02:42:18;;;;;;;;;;;;;;;21.80;58.40;100228.31;5042882;28;4131;-66
2023/08/06 02:44:45;;;;;;;;;;;;;;;21.80;58.38;100221.81;5042063;28;4169;-66
2023/08/06 02:47:11;;;;;;;;;;;;;;;21.79;58.76;100214.59;5040094;28;4218;-67
2023/08/06 02:49:38;;;;;;;;;;;;;;;21.79;58.46;100206.66;5038679;28;4186;-68
2023/08/06 02:52:04;;;;;;;;;;;;;;;21.80;58.51;100210.28;5037806;28;3924;-66
2023/08/06 02:54:31;;;;;;;;;;;;;;;21.78;58.64;100199.41;5027002;28;4087;-66
2023/08/06 02:56:57;;;;;;;;;;;;;;;21.79;58.47;100205.94;5037278;28;4362;-66
2023/08/06 02:59:28;;;;;;;;;;;;;;;21.80;58.50;100201.63;5038006;28;4046;-66
2023/08/06 03:02:08;;;;;;;;;;;;;;;21.80;58.71;100201.63;5036976;28;4012;-66
2023/08/06 03:04:43;;;;;;;;;;;;;;;21.79;58.70;100206.66;5047189;28;4044;-66
2023/08/06 03:07:11;;;;;;;;;;;;;;;21.79;58.56;100191.53;5042840;28;5116;-67
2023/08/06 03:09:50;;;;;;;;;;;;;;;21.80;58.73;100207.41;5041183;28;3989;-66
2023/08/06 03:12:17;;;;;;;;;;;;;;;21.79;58.62;100200.91;5041672;28;4615;-67
2023/08/06 03:14:44;;;;;;;;;;;;;;;21.79;58.51;100197.28;5057309;28;4106;-66
2023/08/06 03:17:11;;;;;;;;;;;;;;;21.79;58.44;100194.41;5040112;28;4275;-67
2023/08/06 03:19:37;;;;;;;;;;;;;;;21.79;58.84;100194.41;5041642;28;4764;-66
2023/08/06 03:22:06;;;;;;;;;;;;;;;21.79;58.43;100188.66;5042511;28;4068;-66
2023/08/06 03:24:34;;;;;;;;;;;;;;;21.78;58.53;100181.41;5058521;28;4179;-68
2023/08/06 03:27:01;;;;;;;;;;;;;;;21.78;58.74;100181.41;5042503;28;4111;-66
2023/08/06 03:29:28;;;;;;;;;;;;;;;21.79;58.49;100183.63;5056703;28;4325;-66
2023/08/06 03:31:58;;;;;;;;;;;;;;;21.78;58.66;100190.03;5058075;28;4118;-66
2023/08/06 03:34:24;;;;;;;;;;;;;;;21.79;58.80;100182.88;5045614;28;4205;-66
2023/08/06 03:36:51;;;;;;;;;;;;;;;21.79;58.75;100188.66;5055919;28;4125;-66
2023/08/06 03:39:17;;;;;;;;;;;;;;;21.78;58.44;100173.47;5042960;28;5072;-66
2023/08/06 03:41:44;;;;;;;;;;;;;;;21.78;58.63;100175.63;5040653;28;4293;-66
2023/08/06 03:44:10;;;;;;;;;;;;;;;21.79;58.55;100171.34;5042005;28;4016;-66
2023/08/06 03:46:37;;;;;;;;;;;;;;;21.79;58.44;100162.72;5046143;28;4245;-66
2023/08/06 03:49:05;;;;;;;;;;;;;;;21.79;58.56;100165.59;5031367;28;4476;-66
2023/08/06 03:51:32;;;;;;;;;;;;;;;21.78;58.42;100164.09;5058281;28;4125;-66
2023/08/06 03:53:59;;;;;;;;;;;;;;;21.78;58.76;100158.34;5046328;28;4202;-67
2023/08/06 03:56:26;;;;;;;;;;;;;;;21.79;58.48;100159.81;5029481;28;4013;-66
2023/08/06 03:58:52;;;;;;;;;;;;;;;21.78;58.79;100158.34;5042578;28;4054;-66
2023/08/06 04:01:19;;;;;;;;;;;;;;;21.79;58.64;100159.81;5042148;28;4007;-67
2023/08/06 04:03:46;;;;;;;;;;;;;;;21.77;58.45;100148.97;5040932;28;4433;-66
2023/08/06 04:06:13;;;;;;;;;;;;;;;21.78;58.41;100141.06;5039434;28;4142;-66
2023/08/06 04:08:40;;;;;;;;;;;;;;;21.78;58.54;100143.94;5042457;28;4258;-66
2023/08/06 04:11:06;;;;;;;;;;;;;;;21.78;58.63;100141.78;5030403;28;4019;-66
2023/08/06 04:13:33;;;;;;;;;;;;;;;21.78;58.48;100138.16;5040456;28;4467;-66
2023/08/06 04:16:02;;;;;;;;;;;;;;;21.78;58.63;100135.28;5041221;28;4275;-66
2023/08/06 04:18:30;;;;;;;;;;;;;;;21.79;58.45;100136.78;5030561;28;4154;-66
2023/08/06 04:20:57;;;;;;;;;;;;;;;21.79;58.65;100136.78;5042415;28;4298;-66
2023/08/06 04:23:24;;;;;;;;;;;;;;;21.78;58.55;100129.53;5040839;28;3995;-66
2023/08/06 04:25:56;;;;;;;;;;;;;;;21.78;58.52;100123.75;5045139;28;4215;-67
2023/08/06 04:28:25;;;;;;;;;;;;;;;21.78;58.67;100123.75;5040266;28;4168;-66
2023/08/06 04:30:53;;;;;;;;;;;;;;;21.77;58.59;100116.53;5027528;28;4048;-66
2023/08/06 04:33:21;;;;;;;;;;;;;;;21.77;58.47;100120.16;5055318;28;4784;-67
2023/08/06 04:35:47;;;;;;;;;;;;;;;21.77;58.66;100111.50;5057561;28;4494;-66
2023/08/06 04:38:14;;;;;;;;;;;;;;;21.78;58.56;100109.34;5061839;28;4030;-67
2023/08/06 04:40:40;;;;;;;;;;;;;;;21.76;58.69;100110.03;5060886;28;3978;-66
2023/08/06 04:43:07;;;;;;;;;;;;;;;21.77;58.72;100099.25;5060886;28;4547;-66
2023/08/06 04:45:34;;;;;;;;;;;;;;;21.77;58.76;100097.09;5044832;28;4159;-66
2023/08/06 04:48:01;;;;;;;;;;;;;;;21.77;58.72;100099.25;5061051;28;4176;-66
2023/08/06 04:50:27;;;;;;;;;;;;;;;21.77;58.59;100096.38;5061550;28;4670;-66
2023/08/06 04:52:54;;;;;;;;;;;;;;;21.77;58.42;100088.47;5060020;28;3978;-66
2023/08/06 04:55:20;;;;;;;;;;;;;;;21.77;58.84;100087.72;5061213;28;4126;-66
2023/08/06 04:57:47;;;;;;;;;;;;;;;21.77;58.49;100081.97;5060898;28;4210;-66
2023/08/06 05:00:13;;;;;;;;;;;;;;;21.77;58.62;100081.97;5061524;28;4133;-67
2023/08/06 05:02:40;;;;;;;;;;;;;;;21.77;58.52;100084.84;5059983;28;4154;-66
2023/08/06 05:05:06;;;;;;;;;;;;;;;21.77;58.54;100082.69;5061250;28;4097;-66
2023/08/06 05:07:33;;;;;;;;;;;;;;;21.77;58.45;100084.84;5060476;28;3999;-67
2023/08/06 05:09:59;;;;;;;;;;;;;;;21.75;58.86;100077.59;5060800;28;4296;-67
2023/08/06 05:12:25;;;;;;;;;;;;;;;21.77;58.64;100076.19;5061324;28;4116;-66
2023/08/06 05:14:52;;;;;;;;;;;;;;;21.77;58.86;100070.44;5059989;28;4093;-66
2023/08/06 05:17:18;;;;;;;;;;;;;;;21.77;58.56;100076.19;5061025;28;4086;-67
2023/08/06 05:19:45;;;;;;;;;;;;;;;21.77;58.55;100076.19;5060912;28;4063;-66
2023/08/06 05:22:11;;;;;;;;;;;;;;;21.77;58.51;100070.44;5060882;28;4272;-66
2023/08/06 05:24:37;;;;;;;;;;;;;;;21.77;58.58;100064.69;5060221;28;4035;-65
2023/08/06 05:27:04;;;;;;;;;;;;;;;21.77;58.51;100044.50;5058933;28;4177;-67
2023/08/06 05:29:30;;;;;;;;;;;;;;;21.77;58.77;100048.13;5060306;28;4001;-67
2023/08/06 05:31:57;;;;;;;;;;;;;;;21.77;58.75;100041.63;5061010;28;4079;-66
2023/08/06 05:34:23;;;;;;;;;;;;;;;21.76;58.49;100043.75;5059876;28;4063;-66
2023/08/06 05:36:50;;;;;;;;;;;;;;;21.77;58.78;100038.75;5059290;28;4564;-66
2023/08/06 05:39:16;;;;;;;;;;;;;;;21.76;58.74;100049.50;5061084;28;4149;-67
2023/08/06 05:41:43;;;;;;;;;;;;;;;21.75;58.69;100040.13;5059488;28;4132;-66
2023/08/06 05:44:09;;;;;;;;;;;;;;;21.78;58.77;100045.97;5060156;28;4055;-66
2023/08/06 05:46:35;;;;;;;;;;;;;;;21.77;58.80;100047.38;5033009;28;4194;-67
2023/08/06 05:49:02;;;;;;;;;;;;;;;21.75;58.43;100054.53;5059302;28;4099;-66
2023/08/06 05:51:28;;;;;;;;;;;;;;;21.77;58.78;100047.38;5058477;28;4232;-66
2023/08/06 05:53:55;;;;;;;;;;;;;;;21.76;58.54;100049.50;5059695;28;4057;-66
2023/08/06 05:56:21;;;;;;;;;;;;;;;21.74;58.59;100047.31;5060474;28;4199;-66
2023/08/06 05:58:50;;;;;;;;;;;;;;;21.78;58.49;100051.72;5059548;28;4360;-66
2023/08/06 06:01:16;;;;;;;;;;;;;;;21.77;58.46;100053.16;5059855;28;4119;-66
2023/08/06 06:03:43;;;;;;;;;;;;;;;21.77;58.84;100050.25;5059384;28;4461;-66
2023/08/06 06:06:09;;;;;;;;;;;;;;;21.77;58.75;100053.88;5060452;28;4172;-66
2023/08/06 06:08:36;;;;;;;;;;;;;;;21.77;58.44;100048.13;5058888;28;3995;-68
2023/08/06 06:11:02;;;;;;;;;;;;;;;21.75;58.86;100048.78;5060744;28;4128;-67
2023/08/06 06:13:28;;;;;;;;;;;;;;;21.75;58.73;100045.16;5060185;28;4456;-67
2023/08/06 06:15:55;;;;;;;;;;;;;;;21.75;58.74;100045.91;5059071;28;4485;-67
2023/08/06 06:18:22;;;;;;;;;;;;;;;21.75;58.71;100034.38;5058715;28;4125;-66
2023/08/06 06:20:48;;;;;;;;;;;;;;;21.76;58.68;100043.75;5058047;28;4301;-69
2023/08/06 06:23:15;;;;;;;;;;;;;;;21.75;58.80;100040.13;5059992;28;4147;-67
2023/08/06 06:25:42;;;;;;;;;;;;;;;21.77;58.89;100044.50;5060053;28;3971;-66
2023/08/06 06:28:08;;;;;;;;;;;;;;;21.77;58.55;100038.75;5059830;28;4063;-67
2023/08/06 06:30:34;;;;;;;;;;;;;;;21.75;58.79;100045.91;5059664;28;3994;-67
2023/08/06 06:33:01;;;;;;;;;;;;;;;21.75;58.49;100034.38;5059117;28;4506;-68
2023/08/06 06:35:27;;;;;;;;;;;;;;;21.77;58.63;100035.84;5059591;28;4191;-67
2023/08/06 06:37:54;;;;;;;;;;;;;;;21.75;58.79;100028.59;5060837;28;4083;-66
2023/08/06 06:40:20;;;;;;;;;;;;;;;21.75;58.86;100031.50;5063923;28;4481;-66
2023/08/06 06:42:47;;;;;;;;;;;;;;;21.74;58.44;100030.03;5063301;28;4198;-67
2023/08/06 06:45:14;;;;;;;;;;;;;;;21.77;58.64;100024.34;5052124;28;4130;-78
2023/08/06 06:47:40;;;;;;;;;;;;;;;21.75;58.74;100028.59;5063205;28;4241;-65
2023/08/06 06:50:07;;;;;;;;;;;;;;;21.77;58.54;100030.81;5064242;28;4506;-66
2023/08/06 06:52:33;;;;;;;;;;;;;;;21.75;58.66;100028.59;5063576;28;4334;-66
2023/08/06 06:54:59;;;;;;;;;;;;;;;21.77;58.56;100027.94;5062829;28;4171;-66
2023/08/06 06:57:26;;;;;;;;;;;;;;;21.76;58.84;100026.47;5063631;28;4139;-66
2023/08/06 06:59:52;;;;;;;;;;;;;;;21.77;58.56;100032.97;5062299;28;4523;-67
2023/08/06 07:02:19;;;;;;;;;;;;;;;21.77;58.84;100032.97;5063582;28;4227;-66
2023/08/06 07:04:45;;;;;;;;;;;;;;;21.77;58.37;100035.84;5063009;28;4127;-66
2023/08/06 07:07:11;;;;;;;;;;;;;;;21.77;58.45;100030.09;5062516;28;3869;-66
2023/08/06 07:09:38;;;;;;;;;;;;;;;21.75;58.58;100037.25;5063699;28;4118;-66
2023/08/06 07:12:04;;;;;;;;;;;;;;;21.78;58.78;100031.56;5064479;28;4375;-66
2023/08/06 07:14:31;;;;;;;;;;;;;;;21.77;58.75;100032.97;5063132;28;4091;-67
2023/08/06 07:16:57;;;;;;;;;;;;;;;21.77;58.73;100035.84;5062338;28;4177;-66
2023/08/06 07:19:24;;;;;;;;;;;;;;;21.77;58.47;100035.84;5063003;28;5064;-66
2023/08/06 07:21:50;;;;;;;;;;;;;;;21.73;58.61;100042.22;5062272;28;4148;-66
2023/08/06 07:24:17;;;;;;;;;;;;;;;21.71;58.67;100034.25;5062908;28;4232;-67
2023/08/06 07:26:44;;;;;;;;;;;;;;;21.71;58.90;100045.78;5062171;28;4469;-66
2023/08/06 07:29:10;;;;;;;;;;;;;;;21.72;58.69;100038.63;5064071;28;4269;-66
2023/08/06 07:31:37;;;;;;;;;;;;;;;21.71;58.54;100039.28;5062884;28;4149;-65
2023/08/06 07:34:03;;;;;;;;;;;;;;;21.71;58.88;100042.91;5062599;28;4494;-66
2023/08/06 07:36:29;;;;;;;;;;;;;;;21.71;58.73;100040.03;5062410;28;5217;-66
2023/08/06 07:38:56;;;;;;;;;;;;;;;21.72;58.87;100035.00;5061849;28;4503;-66
2023/08/06 07:41:23;;;;;;;;;;;;;;;21.71;58.89;100040.03;5062371;28;4149;-67
2023/08/06 07:43:49;;;;;;;;;;;;;;;21.71;58.73;100040.03;5062734;28;4143;-66
2023/08/06 07:46:16;;;;;;;;;;;;;;;21.71;58.70;100034.25;5062269;28;4092;-66
2023/08/06 07:48:42;;;;;;;;;;;;;;;21.72;58.70;100026.38;5061255;28;4269;-65
2023/08/06 07:51:09;;;;;;;;;;;;;;;21.70;58.88;100027.03;5062950;28;4071;-66
2023/08/06 07:53:35;;;;;;;;;;;;;;;21.75;58.76;100028.59;5062076;28;4836;-67
2023/08/06 07:56:02;;;;;;;;;;;;;;;21.78;58.47;100028.66;5062222;28;5036;-66
2023/08/06 07:58:29;;;;;;;;;;;;;;;21.78;58.78;100025.78;5061440;28;4180;-66
2023/08/06 08:00:56;;;;;;;;;;;;;;;21.78;58.51;100031.56;5062126;28;4093;-66
2023/08/06 08:03:22;;;;;;;;;;;;;;;21.78;58.62;100029.41;5062403;28;4065;-66
2023/08/06 08:05:49;;;;;;;;;;;;;;;21.78;58.35;100025.78;5061563;28;4312;-66
2023/08/06 08:08:15;;;;;;;;;;;;;;;21.78;58.46;100020.75;5061534;28;4689;-66
2023/08/06 08:10:41;;;;;;;;;;;;;;;21.78;58.53;100028.66;5062887;28;4001;-66
2023/08/06 08:13:08;;;;;;;;;;;;;;;21.79;58.38;100012.88;5033107;28;4379;-66
2023/08/06 08:15:34;;;;;;;;;;;;;;;21.78;58.53;100020.03;5060137;28;4436;-67
2023/08/06 08:18:01;;;;;;;;;;;;;;;21.78;58.49;100022.91;5062517;28;4063;-67
2023/08/06 08:20:35;;;;;;;;;;;;;;;21.78;58.76;100020.03;5061270;28;4067;-66
2023/08/06 08:23:01;;;;;;;;;;;;;;;21.77;58.82;100018.56;5061034;28;4273;-65
2023/08/06 08:25:27;;;;;;;;;;;;;;;21.78;58.79;100017.88;5061228;28;4107;-67
2023/08/06 08:27:56;;;;;;;;;;;;;;;21.78;58.53;100014.25;5060840;28;4695;-66
2023/08/06 08:30:24;;;;;;;;;;;;;;;21.78;58.62;100008.50;5059904;28;4204;-66
2023/08/06 08:32:51;;;;;;;;;;;;;;;21.78;58.67;100014.25;5062582;28;4123;-66
2023/08/06 08:35:17;;;;;;;;;;;;;;;21.78;58.49;100011.38;5060704;28;4385;-65
2023/08/06 08:37:44;;;;;;;;;;;;;;;21.78;58.74;100008.50;5060665;28;4008;-66
2023/08/06 08:40:11;;;;;;;;;;;;;;;21.80;58.66;99999.91;5061902;28;4204;-66
2023/08/06 08:42:37;;;;;;;;;;;;;;;21.78;58.56;100000.59;5061383;28;4168;-65
2023/08/06 08:45:04;;;;;;;;;;;;;;;21.78;58.60;100000.59;5062310;28;4295;-66
2023/08/06 08:47:30;;;;;;;;;;;;;;;21.78;58.60;100000.59;5061408;28;4092;-66
2023/08/06 08:49:57;;;;;;;;;;;;;;;21.79;58.69;99998.44;5059482;28;4514;-66
2023/08/06 08:52:23;;;;;;;;;;;;;;;21.79;58.51;99992.69;5059959;28;4110;-65
2023/08/06 08:54:51;;;;;;;;;;;;;;;21.78;58.63;99986.16;5032828;28;4236;-66
2023/08/06 08:57:18;;;;;;;;;;;;;;;21.78;58.52;99985.44;5062143;28;4040;-66
2023/08/06 08:59:45;;;;;;;;;;;;;;;21.79;58.77;99981.16;5060105;28;4137;-65
2023/08/06 09:02:11;;;;;;;;;;;;;;;21.79;58.72;99986.94;5060409;28;4096;-66
2023/08/06 09:04:38;;;;;;;;;;;;;;;21.79;58.75;99981.16;5061183;28;4228;-65
2023/08/06 09:07:04;;;;;;;;;;;;;;;21.78;58.62;99971.75;5060016;28;4088;-66
2023/08/06 09:09:31;;;;;;;;;;;;;;;21.78;58.84;99963.13;5032249;28;4069;-66
2023/08/06 09:11:59;;;;;;;;;;;;;;;21.78;58.74;99962.38;5033836;28;4463;-66
2023/08/06 09:14:26;;;;;;;;;;;;;;;21.79;58.48;99963.88;5060955;28;4049;-66
2023/08/06 09:16:52;;;;;;;;;;;;;;;21.79;58.56;99958.09;5060256;28;4348;-66
2023/08/06 09:19:19;;;;;;;;;;;;;;;21.79;58.56;99958.09;5061275;28;4169;-65
2023/08/06 09:21:48;;;;;;;;;;;;;;;21.79;58.64;99952.34;5059881;28;4024;-66
2023/08/06 09:24:15;;;;;;;;;;;;;;;21.78;58.50;99947.97;5060192;28;4444;-66
2023/08/06 09:26:43;;;;;;;;;;;;;;;21.80;58.60;99953.81;5059308;28;4345;-66
2023/08/06 09:29:11;;;;;;;;;;;;;;;21.80;58.57;99948.03;5060469;28;4201;-66
2023/08/06 09:31:40;;;;;;;;;;;;;;;21.79;58.45;99940.81;5059919;28;4293;-65
2023/08/06 09:34:10;;;;;;;;;;;;;;;21.79;58.61;99935.78;5060036;28;4460;-66
2023/08/06 09:36:39;;;;;;;;;;;;;;;21.78;58.63;99934.31;5058983;28;4062;-64
2023/08/06 09:39:12;;;;;;;;;;;;;;;21.79;58.46;99935.78;5060733;28;4046;-66
2023/08/06 09:41:39;;;;;;;;;;;;;;;21.80;58.48;99930.75;5061009;28;4438;-66
2023/08/06 09:44:11;;;;;;;;;;;;;;;21.80;58.74;99933.63;5059801;28;4299;-66
2023/08/06 09:46:37;;;;;;;;;;;;;;;21.79;58.72;99926.41;5059307;28;3991;-65
2023/08/06 09:49:05;;;;;;;;;;;;;;;21.80;58.63;99930.75;5060345;28;4435;-66
2023/08/06 09:51:32;;;;;;;;;;;;;;;21.79;58.38;99914.88;5059402;28;4094;-66
2023/08/06 09:53:58;;;;;;;;;;;;;;;21.79;58.63;99917.78;5060444;28;4003;-66
2023/08/06 09:56:27;;;;;;;;;;;;;;;21.80;58.63;99907.69;5033767;28;4098;-66
2023/08/06 09:58:53;;;;;;;;;;;;;;;21.79;58.50;99906.25;5059770;28;4090;-66
2023/08/06 10:01:19;;;;;;;;;;;;;;;21.80;58.80;99913.47;5031697;28;4033;-66
2023/08/06 10:03:46;;;;;;;;;;;;;;;21.79;58.55;99901.22;5059908;28;4112;-66
2023/08/06 10:06:12;;;;;;;;;;;;;;;21.80;58.71;99910.56;5031148;28;4172;-66
2023/08/06 10:08:41;;;;;;;;;;;;;;;21.80;58.50;99908.41;5059068;28;4090;-66
2023/08/06 10:11:07;;;;;;;;;;;;;;;21.80;58.46;99904.81;5059964;28;4021;-66
2023/08/06 10:13:34;;;;;;;;;;;;;;;21.80;58.71;99899.06;5032622;28;4016;-66
2023/08/06 10:16:00;;;;;;;;;;;;;;;21.80;58.62;99896.16;5032724;28;4200;-66
2023/08/06 10:18:32;;;;;;;;;;;;;;;21.80;58.66;99894.00;5059663;28;4145;-66
2023/08/06 10:20:59;;;;;;;;;;;;;;;21.79;58.81;99895.44;5059374;28;4005;-66
2023/08/06 10:23:35;;;;;;;;;;;;;;;21.80;58.79;99894.00;5060685;28;3924;-66
2023/08/06 10:26:02;;;;;;;;;;;;;;;21.79;58.54;99892.56;5059152;28;4115;-66
2023/08/06 10:28:34;;;;;;;;;;;;;;;21.80;58.82;99896.91;5041715;28;4134;-65
2023/08/06 10:31:00;;;;;;;;;;;;;;;21.79;58.52;99883.91;5059348;28;4349;-66
2023/08/06 10:33:39;;;;;;;;;;;;;;;21.80;58.82;99890.41;5059731;28;4015;-66
2023/08/06 10:36:09;;;;;;;;;;;;;;;21.80;58.78;99890.41;5059227;28;4058;-66
2023/08/06 10:38:37;;;;;;;;;;;;;;;21.80;58.50;99890.41;5058591;28;4023;-66
2023/08/06 10:41:03;;;;;;;;;;;;;;;21.81;58.74;99889.00;5030907;28;4065;-66
2023/08/06 10:43:31;;;;;;;;;;;;;;;21.81;58.53;99886.13;5059837;28;4305;-67
2023/08/06 10:45:58;;;;;;;;;;;;;;;21.80;58.76;99882.50;5030854;28;4600;-66
2023/08/06 10:48:31;;;;;;;;;;;;;;;21.80;58.69;99890.41;5059253;28;4459;-66
2023/08/06 10:50:59;;;;;;;;;;;;;;;21.80;58.65;99884.66;5058340;28;4154;-66
2023/08/06 10:53:25;;;;;;;;;;;;;;;21.80;58.82;99884.66;5058821;28;3975;-66
2023/08/06 10:55:52;;;;;;;;;;;;;;;21.81;58.63;99880.38;5060631;28;3986;-66
2023/08/06 10:58:18;;;;;;;;;;;;;;;21.80;58.63;99878.88;5058705;28;4173;-66
2023/08/06 11:00:45;;;;;;;;;;;;;;;21.78;58.62;99873.78;5059295;28;4404;-66
2023/08/06 11:03:11;;;;;;;;;;;;;;;21.80;58.52;99867.34;5059951;28;3958;-66
2023/08/06 11:05:41;;;;;;;;;;;;;;;21.80;58.66;99876.00;5059483;28;4108;-65
2023/08/06 11:08:07;;;;;;;;;;;;;;;21.81;58.45;99865.97;5059788;28;4887;-66
2023/08/06 11:10:34;;;;;;;;;;;;;;;21.80;58.64;99867.34;5030700;28;4164;-66
2023/08/06 11:13:00;;;;;;;;;;;;;;;21.80;58.67;99856.56;5058273;28;4287;-66
2023/08/06 11:15:27;;;;;;;;;;;;;;;21.80;58.45;99859.44;5059343;28;4400;-66
2023/08/06 11:17:53;;;;;;;;;;;;;;;21.81;58.62;99854.44;5059185;28;4171;-66
2023/08/06 11:20:20;;;;;;;;;;;;;;;21.81;58.53;99851.53;5060503;28;4563;-66
2023/08/06 11:22:46;;;;;;;;;;;;;;;21.79;58.73;99848.63;5058989;28;4130;-67
2023/08/06 11:25:12;;;;;;;;;;;;;;;21.80;58.41;99841.41;5062675;28;4105;-66
2023/08/06 11:27:39;;;;;;;;;;;;;;;21.80;58.53;99844.31;5062096;28;4511;-66
2023/08/06 11:30:05;;;;;;;;;;;;;;;21.80;58.64;99827.75;5063974;28;4079;-66
2023/08/06 11:32:33;;;;;;;;;;;;;;;21.81;58.42;99831.38;5061994;28;4003;-66
2023/08/06 11:35:08;;;;;;;;;;;;;;;21.81;58.56;99837.13;5043950;28;4089;-66
2023/08/06 11:37:35;;;;;;;;;;;;;;;21.80;58.70;99833.50;5037101;28;4715;-66
2023/08/06 11:40:01;;;;;;;;;;;;;;;21.81;58.46;99825.63;5061039;28;3988;-66
2023/08/06 11:42:30;;;;;;;;;;;;;;;21.81;58.54;99816.97;5045093;28;4273;-66
2023/08/06 11:44:57;;;;;;;;;;;;;;;21.81;58.66;99822.72;5060880;28;4084;-66
2023/08/06 11:47:23;;;;;;;;;;;;;;;21.80;58.61;99821.97;5061362;28;4054;-66
2023/08/06 11:49:49;;;;;;;;;;;;;;;21.81;58.85;99819.84;5062289;28;4015;-66
2023/08/06 11:52:19;;;;;;;;;;;;;;;21.81;58.86;99805.44;5062981;28;4127;-66
2023/08/06 11:54:46;;;;;;;;;;;;;;;21.80;58.85;99807.56;5062279;28;4028;-65
2023/08/06 11:57:12;;;;;;;;;;;;;;;21.80;58.50;99804.69;5062259;28;4136;-66
2023/08/06 11:59:40;;;;;;;;;;;;;;;21.81;58.70;99805.44;5060627;28;4138;-65
2023/08/06 12:02:08;;;;;;;;;;;;;;;21.81;58.76;99802.56;5062610;28;3940;-65
2023/08/06 12:04:53;;;;;;;;;;;;;;;21.81;58.73;99793.91;5061955;28;4213;-66
2023/08/06 12:07:20;;;;;;;;;;;;;;;21.81;58.85;99788.16;5061306;28;4095;-66
2023/08/06 12:09:46;;;;;;;;;;;;;;;21.80;58.46;99789.56;5031978;28;4206;-66
2023/08/06 12:12:12;;;;;;;;;;;;;;;21.81;58.63;99791.03;5061942;28;4074;-66
2023/08/06 12:14:39;;;;;;;;;;;;;;;21.81;58.87;99788.16;5060930;28;4048;-65
2023/08/06 12:17:05;;;;;;;;;;;;;;;21.81;58.78;99786.00;5061886;28;4502;-65
2023/08/06 12:19:32;;;;;;;;;;;;;;;21.80;58.53;99778.75;5062405;28;4026;-67
2023/08/06 12:21:58;;;;;;;;;;;;;;;21.81;58.45;99776.63;5060824;28;4462;-66
2023/08/06 12:24:24;;;;;;;;;;;;;;;21.81;58.52;99783.13;5060864;28;4054;-66
2023/08/06 12:26:51;;;;;;;;;;;;;;;21.82;58.61;99780.97;5061534;28;4157;-65
2023/08/06 12:29:17;;;;;;;;;;;;;;;21.81;58.39;99782.38;5061491;28;4117;-66
2023/08/06 12:31:44;;;;;;;;;;;;;;;21.80;58.74;99787.41;5060996;28;4564;-66
2023/08/06 12:34:10;;;;;;;;;;;;;;;21.82;58.67;99783.84;5061212;28;4113;-66
2023/08/06 12:36:36;;;;;;;;;;;;;;;21.82;58.55;99792.50;5060922;28;4103;-66
2023/08/06 12:39:03;;;;;;;;;;;;;;;21.81;58.67;99788.88;5061268;28;4306;-66
2023/08/06 12:41:29;;;;;;;;;;;;;;;21.82;58.47;99798.25;5061185;28;3968;-65
2023/08/06 12:43:56;;;;;;;;;;;;;;;21.81;58.80;99793.91;5060360;28;4200;-66
2023/08/06 12:46:22;;;;;;;;;;;;;;;21.81;58.54;99783.13;5061164;28;4032;-66
2023/08/06 12:48:48;;;;;;;;;;;;;;;21.82;58.65;99795.38;5061613;28;4089;-69